Time;durP1;ratioP1;P1;durP2;ratioP2;P2;SDS_P1;SDS_P2;PMS_P1;PMS_P2;Temp;Humidity;BMP_temperature;BMP_pressure;BME280_temperature;BME280_humidity;BME280_pressure;Samples;Min_cycle;Max_cycle;Signal;HPM_P1;HPM_P2
2023/08/09 00:02:12;;;;;;;16.33;8.35;;;12.70;99.90;;;;;;4956074;28;20463;-87
2023/08/09 00:04:38;;;;;;;19.10;9.35;;;12.70;99.90;;;;;;4989156;28;20553;-87
2023/08/09 00:07:03;;;;;;;16.60;9.15;;;12.80;99.90;;;;;;4968648;28;20124;-87
2023/08/09 00:09:29;;;;;;;15.88;9.85;;;12.80;99.90;;;;;;4941051;28;20042;-87
2023/08/09 00:11:55;;;;;;;15.48;9.20;;;12.80;99.90;;;;;;4974361;28;20403;-87
2023/08/09 00:14:20;;;;;;;21.15;10.13;;;12.80;99.90;;;;;;4972896;28;20415;-87
2023/08/09 00:16:46;;;;;;;17.60;9.95;;;12.80;99.90;;;;;;4972012;28;20041;-87
2023/08/09 00:19:12;;;;;;;17.25;9.60;;;12.90;99.90;;;;;;4986009;28;20049;-87
2023/08/09 00:21:37;;;;;;;21.25;11.07;;;12.90;99.90;;;;;;4987833;28;20037;-87
2023/08/09 00:24:04;;;;;;;19.20;9.95;;;12.90;99.90;;;;;;4956531;28;20452;-87
2023/08/09 00:26:30;;;;;;;16.67;9.75;;;13.00;99.90;;;;;;4989973;28;20036;-87
2023/08/09 00:28:56;;;;;;;19.67;10.63;;;13.00;99.90;;;;;;4988169;28;20038;-87
2023/08/09 00:31:23;;;;;;;15.05;9.93;;;12.90;99.90;;;;;;4989616;28;20034;-87
2023/08/09 00:33:49;;;;;;;16.73;9.80;;;13.00;99.90;;;;;;4972243;28;20049;-87
2023/08/09 00:36:15;;;;;;;18.40;10.18;;;13.00;99.90;;;;;;4990081;28;20038;-87
2023/08/09 00:38:42;;;;;;;18.08;10.57;;;13.00;99.90;;;;;;4971798;28;20038;-87
2023/08/09 00:41:07;;;;;;;19.35;11.02;;;13.00;99.90;;;;;;4973536;28;20458;-86
2023/08/09 00:43:33;;;;;;;13.70;9.35;;;13.10;99.90;;;;;;4988400;28;20133;-87
2023/08/09 00:45:59;;;;;;;20.50;9.77;;;13.00;99.90;;;;;;4973714;28;20487;-87
2023/08/09 00:48:25;;;;;;;20.85;9.85;;;13.00;99.90;;;;;;4992188;28;20040;-87
2023/08/09 00:50:51;;;;;;;18.17;10.15;;;13.00;99.90;;;;;;4991240;28;20058;-86
2023/08/09 00:53:17;;;;;;;16.42;9.50;;;13.00;99.90;;;;;;4946107;28;20077;-87
2023/08/09 00:55:43;;;;;;;16.65;9.65;;;13.00;99.90;;;;;;4993458;28;20045;-86
2023/08/09 00:58:08;;;;;;;18.23;10.20;;;13.00;99.90;;;;;;4976635;28;20034;-87
2023/08/09 01:00:34;;;;;;;17.45;10.48;;;13.00;99.90;;;;;;4959937;28;20513;-86
2023/08/09 01:03:00;;;;;;;16.08;10.05;;;13.00;99.90;;;;;;4977889;28;20426;-86
2023/08/09 01:05:37;;;;;;;16.52;9.75;;;13.00;99.90;;;;;;4977403;28;20071;-86
2023/08/09 01:08:11;;;;;;;18.95;10.40;;;12.90;99.90;;;;;;5007394;28;20576;-86
2023/08/09 01:10:54;;;;;;;17.75;9.80;;;13.00;99.90;;;;;;4971303;28;20319;-86
2023/08/09 01:13:20;;;;;;;19.20;10.45;;;12.90;99.90;;;;;;4992062;28;20045;-86
2023/08/09 01:15:49;;;;;;;17.30;10.18;;;13.00;99.90;;;;;;4993439;28;20487;-86
2023/08/09 01:18:16;;;;;;;15.90;10.57;;;12.90;99.90;;;;;;4973671;28;20513;-86
2023/08/09 01:20:43;;;;;;;16.98;10.18;;;12.90;99.90;;;;;;4989357;28;20049;-86
2023/08/09 01:23:18;;;;;;;17.08;10.05;;;12.80;99.90;;;;;;4991839;28;20065;-86
2023/08/09 01:25:44;;;;;;;18.50;9.77;;;12.80;99.90;;;;;;4956274;28;20511;-86
2023/08/09 01:28:10;;;;;;;15.30;10.63;;;12.80;99.90;;;;;;4992140;28;20034;-85
2023/08/09 01:30:37;;;;;;;16.42;10.77;;;12.70;99.90;;;;;;4955517;28;20481;-85
2023/08/09 01:33:03;;;;;;;19.73;10.98;;;12.70;99.90;;;;;;4959963;28;20034;-86
2023/08/09 01:35:34;;;;;;;16.00;10.43;;;12.70;99.90;;;;;;4993947;28;20531;-86
2023/08/09 01:38:07;;;;;;;18.25;10.57;;;12.60;99.90;;;;;;4976235;28;20046;-85
2023/08/09 01:40:34;;;;;;;19.20;10.23;;;12.60;99.90;;;;;;4991031;28;20068;-86
2023/08/09 01:43:00;;;;;;;18.73;11.32;;;12.50;99.90;;;;;;4974222;28;20095;-85
2023/08/09 01:45:26;;;;;;;20.63;11.68;;;12.50;99.90;;;;;;4956450;28;20042;-85
2023/08/09 01:47:52;;;;;;;17.80;11.20;;;12.50;99.90;;;;;;4940659;28;20037;-85
2023/08/09 01:50:27;;;;;;;19.90;10.43;;;12.50;99.90;;;;;;4961200;28;20387;-86
2023/08/09 01:52:55;;;;;;;19.70;11.05;;;12.50;99.90;;;;;;4988842;28;20054;-84
2023/08/09 01:55:22;;;;;;;20.25;11.25;;;12.50;99.90;;;;;;4976850;28;20038;-84
2023/08/09 01:57:48;;;;;;;17.90;11.65;;;12.40;99.90;;;;;;5009474;28;20407;-82
2023/08/09 02:00:17;;;;;;;19.40;10.30;;;12.40;99.90;;;;;;4958226;28;20176;-82
2023/08/09 02:02:43;;;;;;;19.63;11.73;;;12.40;99.90;;;;;;4941918;28;20121;-85
2023/08/09 02:05:10;;;;;;;24.08;12.25;;;12.30;99.90;;;;;;4991461;28;20120;-84
2023/08/09 02:07:36;;;;;;;20.95;12.80;;;12.30;99.90;;;;;;4990705;28;20164;-86
2023/08/09 02:10:03;;;;;;;20.38;12.82;;;12.20;99.90;;;;;;4974622;28;20037;-86
2023/08/09 02:12:29;;;;;;;22.45;13.18;;;12.20;99.90;;;;;;4991478;28;20045;-85
2023/08/09 02:14:55;;;;;;;24.83;13.23;;;12.20;99.90;;;;;;4958592;28;20041;-86
2023/08/09 02:17:21;;;;;;;34.13;15.75;;;12.20;99.90;;;;;;4944024;28;20050;-86
2023/08/09 02:19:47;;;;;;;25.98;13.82;;;12.20;99.90;;;;;;4960143;28;20038;-86
2023/08/09 02:22:17;;;;;;;23.88;13.98;;;12.10;99.90;;;;;;4991729;28;20030;-86
2023/08/09 02:24:43;;;;;;;26.63;15.35;;;12.10;99.90;;;;;;4959879;28;20041;-86
2023/08/09 02:27:09;;;;;;;25.25;15.40;;;12.10;99.90;;;;;;4974839;28;20168;-85
2023/08/09 02:29:36;;;;;;;27.92;15.05;;;12.20;99.90;;;;;;4975509;28;20117;-86
2023/08/09 02:32:02;;;;;;;26.10;15.27;;;12.20;99.90;;;;;;4974043;28;20041;-85
2023/08/09 02:34:28;;;;;;;28.90;15.35;;;12.10;99.90;;;;;;4990234;28;20034;-85
2023/08/09 02:36:54;;;;;;;32.20;15.93;;;12.20;99.90;;;;;;4992098;28;20125;-85
2023/08/09 02:39:20;;;;;;;31.38;15.77;;;12.10;99.90;;;;;;4974371;28;20109;-85
2023/08/09 02:41:46;;;;;;;28.02;15.40;;;12.20;99.90;;;;;;4978028;28;20052;-85
2023/08/09 02:44:12;;;;;;;28.88;16.15;;;12.20;99.90;;;;;;4990141;28;20034;-85
2023/08/09 02:46:38;;;;;;;27.05;15.35;;;12.10;99.90;;;;;;5006528;28;20048;-85
2023/08/09 02:49:04;;;;;;;30.45;15.07;;;12.20;99.90;;;;;;4991254;28;20073;-85
2023/08/09 02:51:29;;;;;;;38.10;15.75;;;12.20;99.90;;;;;;4987741;28;20076;-84
2023/08/09 02:53:58;;;;;;;29.48;15.68;;;12.20;99.90;;;;;;4957509;28;20120;-84
2023/08/09 02:56:24;;;;;;;29.27;15.52;;;12.20;99.90;;;;;;4975874;28;20042;-84
2023/08/09 02:58:49;;;;;;;30.65;15.35;;;12.10;99.90;;;;;;4991358;28;20096;-84
2023/08/09 03:01:15;;;;;;;29.17;16.50;;;12.10;99.90;;;;;;4988810;28;20041;-84
2023/08/09 03:03:41;;;;;;;29.38;16.10;;;12.10;99.90;;;;;;4954173;28;20044;-84
2023/08/09 03:06:07;;;;;;;29.92;16.25;;;12.10;99.90;;;;;;5007456;28;20040;-84
2023/08/09 03:08:32;;;;;;;33.80;17.40;;;12.10;99.90;;;;;;4972970;28;20081;-84
2023/08/09 03:10:58;;;;;;;28.67;16.35;;;12.10;99.90;;;;;;4991217;28;20037;-84
2023/08/09 03:13:24;;;;;;;29.42;16.88;;;12.10;99.90;;;;;;4954933;28;20034;-84
2023/08/09 03:15:49;;;;;;;32.63;15.82;;;12.10;99.90;;;;;;4986227;28;20063;-84
2023/08/09 03:18:15;;;;;;;27.77;15.82;;;12.10;99.90;;;;;;4957641;28;20073;-84
2023/08/09 03:20:41;;;;;;;26.90;15.98;;;12.10;99.90;;;;;;4990570;28;20451;-84
2023/08/09 03:23:09;;;;;;;31.08;17.30;;;12.00;99.90;;;;;;4957157;28;20041;-84
2023/08/09 03:25:36;;;;;;;46.97;16.88;;;12.00;99.90;;;;;;4975810;28;20045;-85
2023/08/09 03:28:02;;;;;;;30.35;17.67;;;12.00;99.90;;;;;;4975906;28;20140;-84
2023/08/09 03:30:28;;;;;;;35.20;16.17;;;12.00;99.90;;;;;;4988348;28;20076;-84
2023/08/09 03:32:54;;;;;;;30.63;17.35;;;12.00;99.90;;;;;;4937454;28;20097;-84
2023/08/09 03:35:20;;;;;;;30.10;17.08;;;11.90;99.90;;;;;;4987916;28;20038;-84
2023/08/09 03:37:45;;;;;;;30.45;16.45;;;11.90;99.90;;;;;;4949263;28;20030;-84
2023/08/09 03:40:12;;;;;;;27.83;15.98;;;11.90;99.90;;;;;;4951448;28;20046;-84
2023/08/09 03:42:42;;;;;;;32.80;17.52;;;11.90;99.90;;;;;;4989376;28;20063;-85
2023/08/09 03:45:08;;;;;;;31.95;17.75;;;11.90;99.90;;;;;;4974840;28;20041;-85
2023/08/09 03:47:36;;;;;;;34.90;17.08;;;11.90;99.90;;;;;;4935832;28;20050;-85
2023/08/09 03:50:04;;;;;;;32.17;16.88;;;11.80;99.90;;;;;;4986753;28;20080;-85
2023/08/09 03:52:33;;;;;;;33.40;17.10;;;11.80;99.90;;;;;;4958065;28;20586;-84
2023/08/09 03:54:59;;;;;;;34.25;16.60;;;11.80;99.90;;;;;;4997338;28;20091;-84
2023/08/09 03:57:27;;;;;;;29.00;16.13;;;11.80;99.90;;;;;;4974934;28;20502;-84
2023/08/09 03:59:54;;;;;;;29.15;16.23;;;11.80;99.90;;;;;;4974404;28;20034;-84
2023/08/09 04:02:20;;;;;;;30.50;16.92;;;11.80;99.90;;;;;;4989674;28;20041;-84
2023/08/09 04:04:46;;;;;;;31.35;16.75;;;11.70;99.90;;;;;;4972603;28;20471;-84
2023/08/09 04:07:11;;;;;;;32.88;16.88;;;11.80;99.90;;;;;;4990727;28;20066;-84
2023/08/09 04:09:37;;;;;;;34.05;16.83;;;11.70;99.90;;;;;;4973078;28;20042;-84
2023/08/09 04:12:03;;;;;;;30.23;16.63;;;11.70;99.90;;;;;;4969619;28;20038;-84
2023/08/09 04:14:29;;;;;;;31.70;16.77;;;11.70;99.90;;;;;;4972417;28;20042;-84
2023/08/09 04:16:56;;;;;;;31.38;16.00;;;11.70;99.90;;;;;;4990020;28;20096;-83
2023/08/09 04:19:26;;;;;;;26.50;15.50;;;11.70;99.90;;;;;;5006295;28;20085;-84
2023/08/09 04:21:53;;;;;;;28.73;15.88;;;11.70;99.90;;;;;;4970875;28;20030;-83
2023/08/09 04:24:19;;;;;;;30.83;16.13;;;11.70;99.90;;;;;;4976997;28;20049;-83
2023/08/09 04:26:44;;;;;;;31.15;17.33;;;11.70;99.90;;;;;;4992948;28;20042;-83
2023/08/09 04:29:10;;;;;;;32.08;16.98;;;11.70;99.90;;;;;;5006722;28;20030;-83
2023/08/09 04:31:36;;;;;;;31.35;17.67;;;11.70;99.90;;;;;;4992804;28;21041;-83
2023/08/09 04:34:02;;;;;;;28.10;15.95;;;11.70;99.90;;;;;;4992217;28;20073;-83
2023/08/09 04:36:28;;;;;;;27.90;16.35;;;11.60;99.90;;;;;;4961308;28;20041;-83
2023/08/09 04:38:54;;;;;;;28.20;15.27;;;11.70;99.90;;;;;;4977784;28;20045;-83
2023/08/09 04:41:20;;;;;;;35.20;17.30;;;11.60;99.90;;;;;;4977602;28;20045;-83
2023/08/09 04:43:46;;;;;;;45.63;17.20;;;11.70;99.90;;;;;;5009783;28;20041;-83
2023/08/09 04:46:13;;;;;;;30.00;16.10;;;11.60;99.90;;;;;;4992668;28;20038;-83
2023/08/09 04:48:40;;;;;;;30.80;16.08;;;11.70;99.90;;;;;;4972238;28;20042;-83
2023/08/09 04:51:06;;;;;;;28.15;15.00;;;11.70;99.90;;;;;;4976239;28;20042;-83
2023/08/09 04:53:32;;;;;;;27.58;15.40;;;11.70;99.90;;;;;;4984509;28;20058;-83
2023/08/09 04:55:58;;;;;;;25.77;13.80;;;11.70;99.90;;;;;;4990806;28;20045;-83
2023/08/09 04:58:24;;;;;;;24.98;14.93;;;11.60;99.90;;;;;;4974823;28;20170;-83
2023/08/09 05:00:50;;;;;;;24.55;14.75;;;11.70;99.90;;;;;;4991636;28;20061;-83
2023/08/09 05:03:16;;;;;;;23.10;14.20;;;11.60;99.90;;;;;;4976943;28;20062;-83
2023/08/09 05:05:41;;;;;;;25.50;15.35;;;11.60;99.90;;;;;;4974484;28;20092;-84
2023/08/09 05:08:07;;;;;;;25.88;14.77;;;11.60;99.90;;;;;;4989023;28;20103;-83
2023/08/09 05:10:35;;;;;;;22.95;14.55;;;11.60;99.90;;;;;;4975930;28;20100;-83
2023/08/09 05:13:00;;;;;;;22.90;13.63;;;11.60;99.90;;;;;;4992511;28;20038;-83
2023/08/09 05:15:26;;;;;;;21.92;13.82;;;11.60;99.90;;;;;;4997261;28;20045;-84
2023/08/09 05:17:52;;;;;;;23.88;14.25;;;11.60;99.90;;;;;;4992029;28;20042;-83
2023/08/09 05:20:18;;;;;;;23.02;13.75;;;11.60;99.90;;;;;;4993629;28;20561;-83
2023/08/09 05:22:44;;;;;;;23.83;14.13;;;11.60;99.90;;;;;;4993626;28;20542;-83
2023/08/09 05:25:11;;;;;;;23.85;14.40;;;11.60;99.90;;;;;;4956659;28;20120;-83
2023/08/09 05:27:37;;;;;;;24.67;15.07;;;11.60;99.90;;;;;;4990835;28;20046;-83
2023/08/09 05:30:04;;;;;;;23.20;13.85;;;11.70;99.90;;;;;;4977934;28;20044;-84
2023/08/09 05:32:30;;;;;;;22.02;13.73;;;11.70;99.90;;;;;;4989586;28;20129;-84
2023/08/09 05:34:55;;;;;;;24.08;13.50;;;11.70;99.90;;;;;;4979359;28;20455;-84
2023/08/09 05:37:21;;;;;;;20.73;13.50;;;11.80;99.90;;;;;;5007972;28;20041;-84
2023/08/09 05:39:47;;;;;;;21.20;13.63;;;11.80;99.90;;;;;;4993223;28;20038;-84
2023/08/09 05:42:12;;;;;;;20.40;13.20;;;11.80;99.90;;;;;;4993424;28;20050;-81
2023/08/09 05:44:38;;;;;;;20.80;12.77;;;11.80;99.90;;;;;;4975123;28;20026;-84
2023/08/09 05:47:04;;;;;;;18.83;12.60;;;11.80;99.90;;;;;;4993942;28;20034;-84
2023/08/09 05:49:30;;;;;;;17.20;12.63;;;11.90;99.90;;;;;;4981049;28;20042;-85
2023/08/09 05:51:56;;;;;;;20.10;12.85;;;11.80;99.90;;;;;;5012798;28;20038;-85
2023/08/09 05:54:22;;;;;;;20.33;12.85;;;11.90;99.90;;;;;;4980646;28;20120;-85
2023/08/09 05:56:48;;;;;;;18.67;12.10;;;11.90;99.90;;;;;;4993027;28;20033;-85
2023/08/09 05:59:13;;;;;;;17.08;11.82;;;12.00;99.90;;;;;;4993615;28;20041;-85
2023/08/09 06:01:39;;;;;;;16.80;12.30;;;12.00;99.90;;;;;;4970944;28;20117;-85
2023/08/09 06:04:05;;;;;;;16.30;11.27;;;12.10;99.90;;;;;;4975785;28;20038;-85
2023/08/09 06:06:31;;;;;;;14.85;11.18;;;12.10;99.90;;;;;;4990636;28;20099;-85
2023/08/09 06:08:57;;;;;;;15.95;11.32;;;12.20;99.90;;;;;;4976408;28;20038;-85
2023/08/09 06:11:23;;;;;;;15.13;10.80;;;12.20;99.90;;;;;;4992349;28;20044;-85
2023/08/09 06:13:49;;;;;;;14.70;10.68;;;12.30;99.90;;;;;;4991774;28;20041;-85
2023/08/09 06:16:15;;;;;;;13.63;9.85;;;12.30;99.90;;;;;;4983976;28;20034;-85
2023/08/09 06:18:40;;;;;;;13.68;9.95;;;12.40;99.90;;;;;;4977382;28;20061;-85
2023/08/09 06:21:06;;;;;;;13.18;9.50;;;12.50;99.90;;;;;;4945364;28;20072;-84
2023/08/09 06:23:32;;;;;;;11.40;8.98;;;12.50;99.90;;;;;;4976229;28;20054;-85
2023/08/09 06:25:58;;;;;;;11.27;8.60;;;12.60;99.90;;;;;;4977373;28;20042;-85
2023/08/09 06:28:24;;;;;;;10.45;8.15;;;12.70;99.90;;;;;;4959706;28;20046;-85
2023/08/09 06:30:50;;;;;;;11.25;9.13;;;12.70;99.90;;;;;;4976051;28;20046;-85
2023/08/09 06:33:16;;;;;;;12.35;8.40;;;12.80;99.90;;;;;;4976406;28;20080;-85
2023/08/09 06:35:42;;;;;;;11.50;8.57;;;12.80;99.90;;;;;;4961480;28;20124;-85
2023/08/09 06:38:08;;;;;;;11.23;7.60;;;12.90;99.90;;;;;;4946503;28;21547;-90
2023/08/09 06:40:34;;;;;;;10.80;7.75;;;13.00;99.90;;;;;;4976722;28;20125;-88
2023/08/09 06:43:00;;;;;;;10.18;7.55;;;13.10;99.90;;;;;;4942754;28;20060;-87
2023/08/09 06:45:25;;;;;;;10.65;8.00;;;13.10;99.90;;;;;;4958667;28;20511;-88
2023/08/09 06:47:51;;;;;;;9.23;7.07;;;13.20;99.90;;;;;;4960846;28;20042;-87
2023/08/09 06:50:17;;;;;;;8.73;6.72;;;13.20;99.90;;;;;;4976984;28;20048;-85
2023/08/09 06:52:43;;;;;;;8.95;7.18;;;13.30;99.90;;;;;;4962777;28;20526;-87
2023/08/09 06:55:09;;;;;;;8.48;6.85;;;13.40;99.90;;;;;;4962121;28;20033;-86
2023/08/09 06:57:36;;;;;;;7.53;6.40;;;13.50;99.90;;;;;;4977210;28;20124;-87
2023/08/09 07:00:04;;;;;;;9.32;6.55;;;13.60;99.90;;;;;;4976722;28;20033;-87
2023/08/09 07:02:32;;;;;;;6.78;6.05;;;13.70;99.90;;;;;;4977491;28;20445;-87
2023/08/09 07:05:08;;;;;;;8.13;5.90;;;13.80;99.90;;;;;;4971289;28;20104;-87
2023/08/09 07:07:34;;;;;;;7.50;6.20;;;13.90;99.90;;;;;;4975994;28;20045;-87
2023/08/09 07:09:59;;;;;;;7.32;5.35;;;14.00;99.90;;;;;;4960642;28;20042;-87
2023/08/09 07:12:25;;;;;;;7.05;5.35;;;14.10;99.90;;;;;;4958871;28;20044;-87
2023/08/09 07:14:51;;;;;;;7.85;5.22;;;14.20;99.90;;;;;;4960690;28;20083;-87
2023/08/09 07:17:17;;;;;;;6.78;5.55;;;14.30;99.90;;;;;;4960557;28;20046;-87
2023/08/09 07:19:43;;;;;;;6.32;5.25;;;14.40;99.90;;;;;;4959792;28;20037;-87
2023/08/09 07:22:09;;;;;;;7.07;5.25;;;14.50;99.90;;;;;;4953917;28;20073;-87
2023/08/09 07:24:34;;;;;;;8.52;5.20;;;14.70;99.90;;;;;;4974990;28;20080;-87
2023/08/09 07:27:00;;;;;;;5.32;4.63;;;14.80;99.90;;;;;;4954375;28;20460;-87
2023/08/09 07:29:25;;;;;;;9.15;5.07;;;15.00;99.90;;;;;;4978309;28;20033;-86
2023/08/09 07:31:51;;;;;;;7.20;5.30;;;15.00;99.90;;;;;;4977645;28;20553;-86
2023/08/09 07:34:17;;;;;;;6.20;5.43;;;15.20;99.90;;;;;;4979243;28;20050;-87
2023/08/09 07:36:42;;;;;;;5.30;4.63;;;15.30;99.90;;;;;;4962844;28;20044;-87
2023/08/09 07:39:12;;;;;;;7.78;4.60;;;15.50;99.90;;;;;;4960883;28;20038;-86
2023/08/09 07:41:38;;;;;;;5.93;4.18;;;15.60;99.90;;;;;;4936047;28;20056;-86
2023/08/09 07:44:04;;;;;;;5.75;4.22;;;15.70;99.90;;;;;;4943168;28;20554;-86
2023/08/09 07:46:29;;;;;;;5.65;4.90;;;15.80;99.90;;;;;;4959410;28;20483;-85
2023/08/09 07:48:56;;;;;;;7.13;4.25;;;15.90;99.90;;;;;;4956908;28;20041;-86
2023/08/09 07:51:22;;;;;;;5.22;3.83;;;16.00;99.90;;;;;;4971893;28;20451;-86
2023/08/09 07:53:48;;;;;;;5.07;3.80;;;16.00;99.90;;;;;;4959068;28;20058;-85
2023/08/09 07:56:14;;;;;;;4.65;3.92;;;16.10;99.90;;;;;;4938517;28;20130;-88
2023/08/09 07:58:40;;;;;;;7.28;3.85;;;16.30;99.90;;;;;;4974032;28;20039;-88
2023/08/09 08:01:06;;;;;;;4.55;3.67;;;16.40;99.90;;;;;;4927260;28;20542;-87
2023/08/09 08:03:33;;;;;;;6.22;4.13;;;16.50;99.90;;;;;;4958228;28;20038;-87
2023/08/09 08:05:59;;;;;;;5.32;3.85;;;16.70;99.90;;;;;;4959464;28;20060;-87
2023/08/09 08:08:25;;;;;;;5.07;3.40;;;16.80;99.90;;;;;;4927268;28;20038;-84
2023/08/09 08:10:50;;;;;;;4.85;3.58;;;16.90;99.90;;;;;;4959777;28;21113;-85
2023/08/09 08:13:16;;;;;;;5.03;3.47;;;17.00;99.90;;;;;;4958847;28;20638;-85
2023/08/09 08:15:42;;;;;;;8.40;4.03;;;17.10;99.90;;;;;;4910942;28;20506;-86
2023/08/09 08:18:08;;;;;;;5.57;3.85;;;17.20;99.90;;;;;;4942251;28;20502;-83
2023/08/09 08:20:34;;;;;;;6.68;4.03;;;17.20;99.90;;;;;;4925303;28;20042;-86
2023/08/09 08:23:00;;;;;;;5.35;3.70;;;17.20;99.90;;;;;;4938950;28;20058;-85
2023/08/09 08:25:26;;;;;;;4.65;3.65;;;17.40;99.90;;;;;;4957215;28;20050;-85
2023/08/09 08:27:51;;;;;;;4.90;3.45;;;17.40;99.90;;;;;;4958646;28;20408;-85
2023/08/09 08:30:19;;;;;;;6.43;2.90;;;17.50;99.90;;;;;;4959723;28;20042;-85
2023/08/09 08:32:46;;;;;;;3.88;2.10;;;17.60;99.90;;;;;;4923304;28;20053;-85
2023/08/09 08:35:13;;;;;;;3.10;2.47;;;17.70;99.90;;;;;;4943022;28;20400;-85
2023/08/09 08:37:43;;;;;;;2.83;1.92;;;17.80;99.90;;;;;;4942712;28;20038;-85
2023/08/09 08:40:17;;;;;;;5.20;2.28;;;18.00;99.90;;;;;;4928080;28;20411;-85
2023/08/09 08:42:44;;;;;;;4.95;2.55;;;18.20;99.90;;;;;;4926544;28;20068;-85
2023/08/09 08:45:11;;;;;;;2.60;2.40;;;18.20;99.90;;;;;;4959621;28;20061;-85
2023/08/09 08:47:42;;;;;;;3.33;2.28;;;18.20;99.90;;;;;;4911120;28;20042;-85
2023/08/09 08:50:09;;;;;;;3.05;2.25;;;18.40;99.90;;;;;;4959985;28;20088;-85
2023/08/09 08:52:43;;;;;;;3.33;2.72;;;18.40;99.90;;;;;;4963111;28;20058;-85
2023/08/09 08:55:11;;;;;;;3.13;2.70;;;18.40;99.90;;;;;;4963507;28;20165;-85
2023/08/09 08:57:38;;;;;;;7.05;2.78;;;18.40;99.90;;;;;;4980514;28;20052;-85
2023/08/09 09:00:08;;;;;;;4.70;3.15;;;18.50;99.90;;;;;;4965298;28;20475;-85
2023/08/09 09:02:38;;;;;;;6.05;2.83;;;18.60;99.90;;;;;;4989340;28;20082;-85
2023/08/09 09:05:06;;;;;;;4.25;2.50;;;18.60;99.90;;;;;;4986128;28;20050;-86
2023/08/09 09:07:33;;;;;;;3.15;2.20;;;18.70;99.90;;;;;;4969907;28;20052;-87
2023/08/09 09:10:00;;;;;;;3.10;1.92;;;18.90;99.90;;;;;;4994730;28;20034;-87
2023/08/09 09:12:26;;;;;;;3.53;2.08;;;18.90;99.90;;;;;;4997094;28;20045;-87
2023/08/09 09:14:53;;;;;;;5.32;2.13;;;19.00;99.90;;;;;;4997974;28;20045;-87
2023/08/09 09:17:22;;;;;;;1.52;1.40;;;19.00;99.90;;;;;;4996642;28;20121;-88
2023/08/09 09:19:48;;;;;;;5.07;1.88;;;19.20;99.90;;;;;;4981209;28;20506;-87
2023/08/09 09:22:27;;;;;;;2.05;1.50;;;19.30;99.90;;;;;;4998469;28;20092;-88
2023/08/09 09:24:58;;;;;;;2.47;1.30;;;19.40;99.90;;;;;;4992832;28;20038;-88
2023/08/09 09:27:31;;;;;;;1.95;1.45;;;19.30;99.90;;;;;;4997188;28;20128;-87
2023/08/09 09:30:15;;;;;;;1.75;1.20;;;19.20;99.90;;;;;;4997218;28;20472;-88
2023/08/09 09:32:56;;;;;;;2.58;1.48;;;19.40;99.90;;;;;;4980135;28;20081;-87
2023/08/09 09:35:25;;;;;;;3.42;1.50;;;19.50;99.90;;;;;;5002051;28;20042;-87
2023/08/09 09:37:52;;;;;;;2.05;1.50;;;19.60;99.90;;;;;;4980256;28;20690;-87
2023/08/09 09:40:35;;;;;;;3.67;1.60;;;19.60;99.90;;;;;;4997329;28;20061;-87
2023/08/09 09:43:03;;;;;;;1.60;1.40;;;19.60;99.90;;;;;;4997139;28;20042;-87
2023/08/09 09:45:30;;;;;;;1.55;1.33;;;19.50;99.90;;;;;;4964980;28;20045;-87
2023/08/09 09:48:02;;;;;;;1.20;1.10;;;19.50;99.90;;;;;;4995589;28;20224;-87
2023/08/09 09:50:28;;;;;;;;;;;19.40;99.90;;;;;;4968323;28;20037;-87
2023/08/09 09:52:55;;;;;;;1.80;1.10;;;19.30;99.90;;;;;;4979297;28;19932;-88
2023/08/09 09:55:31;;;;;;;1.58;1.33;;;19.40;99.90;;;;;;4977746;28;20073;-88
2023/08/09 09:57:58;;;;;;;2.95;1.63;;;19.50;99.90;;;;;;4960735;28;20038;-88
2023/08/09 10:00:27;;;;;;;2.30;1.25;;;19.60;99.90;;;;;;4961048;28;20081;-88
2023/08/09 10:02:53;;;;;;;2.28;1.38;;;19.80;99.90;;;;;;4960652;28;20595;-88
2023/08/09 10:05:20;;;;;;;1.63;1.20;;;20.10;99.90;;;;;;4961229;28;20049;-88
2023/08/09 10:07:48;;;;;;;1.20;1.10;;;20.00;99.90;;;;;;4959923;28;20042;-87
2023/08/09 10:10:15;;;;;;;2.35;1.50;;;19.80;99.90;;;;;;4959851;28;20054;-87
2023/08/09 10:12:51;;;;;;;1.58;1.38;;;19.70;99.90;;;;;;4960814;28;20164;-87
2023/08/09 10:15:22;;;;;;;1.42;1.10;;;19.40;99.90;;;;;;4960460;28;20117;-86
2023/08/09 10:17:52;;;;;;;1.73;1.47;;;19.30;99.90;;;;;;4959235;28;20038;-87
2023/08/09 10:20:18;;;;;;;3.25;1.55;;;19.50;99.90;;;;;;4959223;28;20046;-88
2023/08/09 10:22:55;;;;;;;2.08;1.40;;;19.70;99.90;;;;;;4976781;28;20046;-87
2023/08/09 10:25:41;;;;;;;1.83;1.50;;;20.00;99.90;;;;;;4976353;28;20143;-88
2023/08/09 10:28:08;;;;;;;3.83;1.65;;;20.40;99.90;;;;;;4976943;28;20037;-88
2023/08/09 10:30:45;;;;;;;2.90;1.30;;;20.60;99.90;;;;;;4976227;28;20046;-85
2023/08/09 10:33:11;;;;;;;3.85;1.52;;;21.00;99.90;;;;;;4991156;28;20035;-84
2023/08/09 10:35:45;;;;;;;2.03;1.08;;;21.00;99.90;;;;;;4959720;28;20045;-84
2023/08/09 10:38:16;;;;;;;3.17;1.55;;;20.90;99.90;;;;;;4990236;28;20041;-84
2023/08/09 10:40:43;;;;;;;1.30;1.20;;;20.50;99.90;;;;;;4957513;28;20030;-84
2023/08/09 10:43:29;;;;;;;1.50;1.40;;;20.40;99.90;;;;;;4976362;28;20038;-84
2023/08/09 10:45:56;;;;;;;1.33;1.00;;;20.50;99.90;;;;;;4974874;28;20597;-84
2023/08/09 10:48:23;;;;;;;3.28;1.42;;;20.80;99.90;;;;;;4960310;28;20062;-84
2023/08/09 10:51:12;;;;;;;3.38;1.40;;;20.80;99.90;;;;;;4974258;28;20042;-85
2023/08/09 10:54:03;;;;;;;1.15;1.02;;;20.90;99.20;;;;;;4970431;28;20078;-84
2023/08/09 10:56:31;;;;;;;2.58;1.20;;;21.00;98.80;;;;;;4971984;28;20515;-84
2023/08/09 10:59:27;;;;;;;2.75;1.20;;;21.20;99.70;;;;;;4978823;28;20187;-84
2023/08/09 11:01:54;;;;;;;1.13;0.93;;;21.40;99.90;;;;;;4980139;28;20050;-85
2023/08/09 11:04:20;;;;;;;2.08;1.33;;;21.70;99.90;;;;;;4989638;28;20050;-85
2023/08/09 11:06:50;;;;;;;1.70;1.40;;;21.80;99.90;;;;;;4973988;28;20526;-85
2023/08/09 11:09:18;;;;;;;2.65;1.30;;;21.70;98.20;;;;;;4975795;28;20460;-85
2023/08/09 11:11:46;;;;;;;5.07;1.77;;;21.60;99.40;;;;;;4974062;28;20038;-85
2023/08/09 11:14:14;;;;;;;2.85;1.42;;;21.30;99.70;;;;;;4975959;28;20129;-84
2023/08/09 11:16:40;;;;;;;2.80;1.38;;;21.00;99.10;;;;;;4974988;28;20404;-85
2023/08/09 11:19:09;;;;;;;2.05;1.38;;;20.70;99.50;;;;;;4975296;28;20042;-85
2023/08/09 11:21:38;;;;;;;2.90;1.08;;;20.30;99.90;;;;;;4969441;28;20172;-85
2023/08/09 11:24:07;;;;;;;1.67;1.35;;;20.40;99.90;;;;;;4974834;28;20042;-84
2023/08/09 11:26:35;;;;;;;3.08;1.40;;;20.40;99.90;;;;;;4974956;28;20132;-85
2023/08/09 11:29:02;;;;;;;2.67;1.42;;;20.70;99.90;;;;;;4975419;28;20049;-85
2023/08/09 11:31:29;;;;;;;2.25;1.10;;;20.90;98.70;;;;;;4974642;28;20046;-85
2023/08/09 11:33:59;;;;;;;2.15;2.00;;;21.10;99.00;;;;;;4991048;28;20113;-85
2023/08/09 11:36:30;;;;;;;5.40;1.33;;;21.30;97.60;;;;;;4991900;28;20547;-86
2023/08/09 11:38:59;;;;;;;4.72;1.35;;;21.40;95.30;;;;;;4976372;28;20392;-85
2023/08/09 11:41:27;;;;;;;4.68;1.67;;;21.50;94.30;;;;;;4975605;28;20046;-85
2023/08/09 11:43:53;;;;;;;2.58;1.27;;;21.30;95.90;;;;;;4975703;28;20049;-86
2023/08/09 11:46:24;;;;;;;1.95;1.35;;;21.10;96.60;;;;;;4990485;28;20045;-86
2023/08/09 11:48:51;;;;;;;2.88;1.35;;;20.80;96.80;;;;;;4989824;28;20050;-85
2023/08/09 11:51:19;;;;;;;1.85;1.30;;;20.60;96.90;;;;;;4989474;28;20042;-85
2023/08/09 11:53:48;;;;;;;4.18;1.80;;;21.00;98.80;;;;;;4955899;28;20054;-87
2023/08/09 11:56:18;;;;;;;2.42;1.35;;;21.40;98.40;;;;;;4959463;28;20054;-86
2023/08/09 11:58:46;;;;;;;1.63;1.10;;;21.50;96.60;;;;;;4973621;28;20052;-86
2023/08/09 12:01:19;;;;;;;1.95;1.25;;;21.60;97.00;;;;;;4974792;28;20478;-85
2023/08/09 12:03:47;;;;;;;2.35;1.23;;;21.90;97.30;;;;;;4957591;28;20491;-86
2023/08/09 12:06:14;;;;;;;4.07;1.50;;;22.10;96.30;;;;;;4945822;28;20574;-85
2023/08/09 12:08:39;;;;;;;3.45;1.45;;;22.20;95.30;;;;;;4959551;28;20400;-86
2023/08/09 12:11:05;;;;;;;3.22;1.20;;;22.30;95.60;;;;;;4975439;28;20060;-86
2023/08/09 12:13:32;;;;;;;5.97;1.70;;;22.00;94.40;;;;;;4959237;28;20060;-85
2023/08/09 12:16:00;;;;;;;4.55;1.13;;;21.90;95.50;;;;;;4974535;28;20048;-86
2023/08/09 12:18:26;;;;;;;3.13;1.58;;;21.70;96.00;;;;;;4958756;28;20377;-86
2023/08/09 12:20:54;;;;;;;2.17;1.00;;;21.60;95.70;;;;;;4975210;28;20061;-86
2023/08/09 12:23:19;;;;;;;2.40;1.60;;;21.60;96.10;;;;;;4959165;28;20129;-87
2023/08/09 12:25:45;;;;;;;3.95;1.05;;;21.90;96.80;;;;;;4959506;28;20133;-87
2023/08/09 12:28:11;;;;;;;2.50;1.30;;;22.10;97.20;;;;;;4958885;28;20526;-86
2023/08/09 12:30:37;;;;;;;3.33;1.85;;;22.30;96.30;;;;;;4957406;28;20121;-85
2023/08/09 12:33:03;;;;;;;5.05;1.45;;;22.30;93.80;;;;;;4941275;28;20046;-90
2023/08/09 12:35:29;;;;;;;2.03;1.27;;;22.10;94.30;;;;;;4955674;28;20038;-90
2023/08/09 12:37:55;;;;;;;5.95;1.50;;;21.70;94.00;;;;;;4931722;28;20034;-88
2023/08/09 12:40:21;;;;;;;1.50;1.02;;;21.40;94.60;;;;;;4972404;28;20512;-88